createdAt,value
2022-09-01T00:00:36.244Z,1014.95
2022-09-01T00:01:36.206Z,1014.93
2022-09-01T00:02:36.247Z,1014.92
2022-09-01T00:03:36.133Z,1014.94
2022-09-01T00:04:36.215Z,1014.94
2022-09-01T00:05:36.055Z,1014.92
2022-09-01T00:06:36.017Z,1014.89
2022-09-01T00:07:36.005Z,1014.87
2022-09-01T00:08:35.941Z,1014.94
2022-09-01T00:09:35.907Z,1014.92
2022-09-01T00:10:35.870Z,1014.93
2022-09-01T00:11:35.831Z,1014.93
2022-09-01T00:12:35.790Z,1014.94
2022-09-01T00:13:35.766Z,1014.91
2022-09-01T00:14:38.539Z,1014.95
2022-09-01T00:15:35.758Z,1014.96
2022-09-01T00:16:35.640Z,1014.97
2022-09-01T00:17:35.609Z,1014.95
2022-09-01T00:18:35.566Z,1014.98
2022-09-01T00:19:35.532Z,1014.97
2022-09-01T00:20:35.498Z,1014.98
2022-09-01T00:21:35.477Z,1015.02
2022-09-01T00:22:35.416Z,1015.03
2022-09-01T00:23:35.387Z,1015.02
2022-09-01T00:24:35.336Z,1015.01
2022-09-01T00:25:35.307Z,1015.02
2022-09-01T00:26:35.265Z,1015.05
2022-09-01T00:27:35.240Z,1015.05
2022-09-01T00:28:35.187Z,1015.01
2022-09-01T00:29:35.161Z,1015.03
2022-09-01T00:30:35.116Z,1015.01
2022-09-01T00:31:35.077Z,1015.04
2022-09-01T00:32:35.050Z,1015.04
2022-09-01T00:33:35.004Z,1015.01
2022-09-01T00:34:34.963Z,1015.01
2022-09-01T00:35:37.373Z,1014.99
2022-09-01T00:36:34.891Z,1015.00
2022-09-01T00:37:34.850Z,1015.00
2022-09-01T00:38:34.829Z,1015.02
2022-09-01T00:39:34.776Z,1015.01
2022-09-01T00:40:34.848Z,1015.01
2022-09-01T00:41:34.700Z,1014.97
2022-09-01T00:42:34.663Z,1014.97
2022-09-01T00:43:34.626Z,1014.98
2022-09-01T00:44:34.595Z,1014.93
2022-09-01T00:45:34.550Z,1014.93
2022-09-01T00:46:35.415Z,1014.94
2022-09-01T00:47:34.476Z,1014.93
2022-09-01T00:48:34.439Z,1014.86
2022-09-01T00:49:34.977Z,1014.93
2022-09-01T00:50:34.370Z,1014.91
2022-09-01T00:51:34.322Z,1014.95
2022-09-01T00:52:34.286Z,1014.91
2022-09-01T00:53:34.250Z,1014.91
2022-09-01T00:54:34.213Z,1014.93
2022-09-01T00:55:34.172Z,1014.90
2022-09-01T00:56:34.151Z,1014.93
2022-09-01T00:57:34.100Z,1014.92
2022-09-01T00:58:34.061Z,1014.91
2022-09-01T00:59:34.024Z,1014.90
2022-09-01T01:00:33.985Z,1014.87
2022-09-01T01:01:33.981Z,1014.88
2022-09-01T01:02:33.973Z,1014.89
2022-09-01T01:03:33.873Z,1014.89
2022-09-01T01:04:33.833Z,1014.88
2022-09-01T01:05:33.794Z,1014.90
2022-09-01T01:06:33.759Z,1014.89
2022-09-01T01:07:33.722Z,1014.91
2022-09-01T01:08:33.693Z,1014.85
2022-09-01T01:09:33.647Z,1014.82
2022-09-01T01:10:33.608Z,1014.82
2022-09-01T01:11:33.577Z,1014.82
2022-09-01T01:12:33.530Z,1014.82
2022-09-01T01:13:33.512Z,1014.84
2022-09-01T01:14:33.458Z,1014.81
2022-09-01T01:15:33.421Z,1014.84
2022-09-01T01:16:33.436Z,1014.82
2022-09-01T01:17:33.348Z,1014.82
2022-09-01T01:18:33.307Z,1014.81
2022-09-01T01:19:37.039Z,1014.81
2022-09-01T01:20:33.232Z,1014.83
2022-09-01T01:21:33.196Z,1014.85
2022-09-01T01:22:33.171Z,1014.86
2022-09-01T01:23:33.133Z,1014.84
2022-09-01T01:24:33.082Z,1014.84
2022-09-01T01:25:33.057Z,1014.85
2022-09-01T01:26:33.009Z,1014.86
2022-09-01T01:27:32.976Z,1014.86
2022-09-01T01:28:32.935Z,1014.86
2022-09-01T01:29:32.895Z,1014.86
2022-09-01T01:30:32.898Z,1014.86
2022-09-01T01:31:32.864Z,1014.83
2022-09-01T01:32:32.783Z,1014.88
2022-09-01T01:33:32.747Z,1014.89
2022-09-01T01:34:32.706Z,1014.90
2022-09-01T01:35:32.672Z,1014.90
2022-09-01T01:36:32.818Z,1014.95
2022-09-01T01:37:32.608Z,1014.92
2022-09-01T01:38:32.573Z,1014.92
2022-09-01T01:39:32.519Z,1014.95
2022-09-01T01:40:32.544Z,1014.95
2022-09-01T01:41:32.444Z,1014.94
2022-09-01T01:42:32.408Z,1014.95
2022-09-01T01:43:32.369Z,1014.97
2022-09-01T01:44:32.347Z,1015.00
2022-09-01T01:45:32.295Z,1014.99
2022-09-01T01:46:32.363Z,1015.02
2022-09-01T01:47:32.224Z,1015.03
2022-09-01T01:48:32.192Z,1015.02
2022-09-01T01:49:32.145Z,1015.03
2022-09-01T01:50:32.119Z,1015.02
2022-09-01T01:51:32.068Z,1015.06
2022-09-01T01:52:32.032Z,1015.05
2022-09-01T01:53:31.994Z,1015.05
2022-09-01T01:54:31.958Z,1015.11
2022-09-01T01:55:31.921Z,1015.10
2022-09-01T01:56:31.895Z,1015.09
2022-09-01T01:57:31.843Z,1015.06
2022-09-01T01:58:31.807Z,1015.09
2022-09-01T01:59:31.773Z,1015.06
2022-09-01T02:00:31.733Z,1015.07
2022-09-01T02:01:31.749Z,1015.05
2022-09-01T02:02:31.723Z,1015.07
2022-09-01T02:03:31.616Z,1015.07
2022-09-01T02:04:31.583Z,1015.08
2022-09-01T02:05:31.541Z,1015.06
2022-09-01T02:06:31.506Z,1015.08
2022-09-01T02:07:32.984Z,1015.06
2022-09-01T02:08:31.439Z,1015.08
2022-09-01T02:09:31.389Z,1015.05
2022-09-01T02:10:31.356Z,1015.02
2022-09-01T02:11:31.324Z,1015.01
2022-09-01T02:12:31.290Z,1015.02
2022-09-01T02:13:31.531Z,1015.02
2022-09-01T02:14:31.203Z,1015.03
2022-09-01T02:15:31.165Z,1015.02
2022-09-01T02:16:31.192Z,1015.02
2022-09-01T02:17:31.087Z,1015.03
2022-09-01T02:18:31.065Z,1015.02
2022-09-01T02:19:31.017Z,1015.02
2022-09-01T02:20:30.975Z,1015.00
2022-09-01T02:21:30.938Z,1015.01
2022-09-01T02:22:30.899Z,1014.99
2022-09-01T02:23:30.861Z,1014.98
2022-09-01T02:24:30.838Z,1015.03
2022-09-01T02:25:30.790Z,1015.05
2022-09-01T02:26:30.748Z,1015.06
2022-09-01T02:27:30.715Z,1014.99
2022-09-01T02:28:30.671Z,1015.01
2022-09-01T02:29:30.645Z,1015.05
2022-09-01T02:30:30.627Z,1015.04
2022-09-01T02:31:30.564Z,1015.05
2022-09-01T02:32:30.520Z,1015.03
2022-09-01T02:33:30.482Z,1015.03
2022-09-01T02:34:30.455Z,1015.03
2022-09-01T02:35:30.411Z,1015.03
2022-09-01T02:36:30.372Z,1014.98
2022-09-01T02:37:30.327Z,1015.00
2022-09-01T02:38:30.301Z,1014.99
2022-09-01T02:39:30.254Z,1014.97
2022-09-01T02:40:30.774Z,1014.98
2022-09-01T02:41:30.181Z,1014.95
2022-09-01T02:42:30.141Z,1014.96
2022-09-01T02:43:30.101Z,1014.96
2022-09-01T02:44:30.064Z,1014.94
2022-09-01T02:45:30.060Z,1014.97
2022-09-01T02:46:30.002Z,1014.93
2022-09-01T02:47:29.953Z,1014.94
2022-09-01T02:48:29.912Z,1014.94
2022-09-01T02:49:30.135Z,1014.94
2022-09-01T02:50:29.838Z,1014.93
2022-09-01T02:51:29.816Z,1014.95
2022-09-01T02:52:29.765Z,1014.91
2022-09-01T02:53:29.725Z,1014.92
2022-09-01T02:54:29.687Z,1014.87
2022-09-01T02:55:29.646Z,1014.90
2022-09-01T02:56:29.609Z,1014.89
2022-09-01T02:57:29.589Z,1014.92
2022-09-01T02:58:29.535Z,1014.90
2022-09-01T02:59:29.496Z,1014.92
2022-09-01T03:00:29.455Z,1014.89
2022-09-01T03:01:29.964Z,1014.90
2022-09-01T03:02:29.381Z,1014.90
2022-09-01T03:03:29.356Z,1014.87
2022-09-01T03:04:29.396Z,1014.88
2022-09-01T03:05:29.289Z,1014.89
2022-09-01T03:06:29.230Z,1014.89
2022-09-01T03:07:29.193Z,1014.91
2022-09-01T03:08:29.162Z,1014.94
2022-09-01T03:09:29.133Z,1014.90
2022-09-01T03:10:29.146Z,1014.91
2022-09-01T03:11:29.045Z,1014.92
2022-09-01T03:12:29.001Z,1014.91
2022-09-01T03:13:28.964Z,1014.94
2022-09-01T03:14:28.926Z,1014.94
2022-09-01T03:15:28.903Z,1014.91
2022-09-01T03:16:28.909Z,1014.94
2022-09-01T03:17:28.810Z,1014.97
2022-09-01T03:18:28.777Z,1014.96
2022-09-01T03:19:28.799Z,1014.99
2022-09-01T03:20:28.699Z,1015.00
2022-09-01T03:21:28.669Z,1014.97
2022-09-01T03:22:28.625Z,1014.96
2022-09-01T03:23:28.596Z,1014.97
2022-09-01T03:24:28.545Z,1014.99
2022-09-01T03:25:28.507Z,1015.03
2022-09-01T03:26:28.471Z,1015.00
2022-09-01T03:27:28.433Z,1015.01
2022-09-01T03:28:28.393Z,1015.03
2022-09-01T03:29:28.370Z,1015.07
2022-09-01T03:30:28.332Z,1015.04
2022-09-01T03:31:30.987Z,1015.07
2022-09-01T03:32:28.270Z,1015.03
2022-09-01T03:33:28.203Z,1015.01
2022-09-01T03:34:28.204Z,1014.95
2022-09-01T03:35:28.152Z,1014.96
2022-09-01T03:36:28.095Z,1014.96
2022-09-01T03:37:28.051Z,1014.93
2022-09-01T03:38:28.014Z,1014.92
2022-09-01T03:39:27.982Z,1014.92
2022-09-01T03:40:27.996Z,1014.92
2022-09-01T03:41:27.909Z,1014.95
2022-09-01T03:42:27.862Z,1014.93
2022-09-01T03:43:34.444Z,1014.97
2022-09-01T03:44:27.788Z,1014.93
2022-09-01T03:45:27.795Z,1014.95
2022-09-01T03:46:27.723Z,1014.94
2022-09-01T03:47:27.682Z,1014.92
2022-09-01T03:48:27.636Z,1014.94
2022-09-01T03:49:27.595Z,1014.91
2022-09-01T03:50:27.559Z,1014.94
2022-09-01T03:51:27.522Z,1014.95
2022-09-01T03:52:27.487Z,1014.91
2022-09-01T03:53:27.459Z,1014.92
2022-09-01T03:54:27.407Z,1014.91
2022-09-01T03:55:27.367Z,1014.91
2022-09-01T03:56:27.358Z,1014.88
2022-09-01T03:57:27.298Z,1014.88
2022-09-01T03:58:27.253Z,1014.88
2022-09-01T03:59:27.244Z,1014.86
2022-09-01T04:00:27.178Z,1014.87
2022-09-01T04:01:27.222Z,1014.89
2022-09-01T04:02:27.186Z,1014.87
2022-09-01T04:03:28.816Z,1014.88
2022-09-01T04:04:27.031Z,1014.86
2022-09-01T04:05:27.001Z,1014.84
2022-09-01T04:06:26.962Z,1014.85
2022-09-01T04:07:26.913Z,1014.82
2022-09-01T04:08:26.876Z,1014.83
2022-09-01T04:09:26.846Z,1014.84
2022-09-01T04:10:26.798Z,1014.83
2022-09-01T04:11:26.775Z,1014.81
2022-09-01T04:12:26.722Z,1014.83
2022-09-01T04:13:26.684Z,1014.85
2022-09-01T04:14:26.646Z,1014.80
2022-09-01T04:15:26.607Z,1014.81
2022-09-01T04:16:26.604Z,1014.81
2022-09-01T04:17:30.472Z,1014.81
2022-09-01T04:18:26.490Z,1014.80
2022-09-01T04:19:26.514Z,1014.82
2022-09-01T04:20:26.415Z,1014.81
2022-09-01T04:21:26.375Z,1014.80
2022-09-01T04:22:26.354Z,1014.79
2022-09-01T04:23:26.300Z,1014.81
2022-09-01T04:24:26.267Z,1014.81
2022-09-01T04:25:26.223Z,1014.81
2022-09-01T04:26:26.186Z,1014.84
2022-09-01T04:27:26.148Z,1014.81
2022-09-01T04:28:26.125Z,1014.85
2022-09-01T04:29:26.071Z,1014.81
2022-09-01T04:30:26.033Z,1014.80
2022-09-01T04:31:26.050Z,1014.83
2022-09-01T04:32:25.964Z,1014.80
2022-09-01T04:33:25.918Z,1014.82
2022-09-01T04:34:25.902Z,1014.77
2022-09-01T04:35:25.843Z,1014.79
2022-09-01T04:36:25.814Z,1014.76
2022-09-01T04:37:25.766Z,1014.78
2022-09-01T04:38:25.727Z,1014.79
2022-09-01T04:39:25.689Z,1014.80
2022-09-01T04:40:25.701Z,1014.82
2022-09-01T04:41:25.615Z,1014.78
2022-09-01T04:42:25.585Z,1014.80
2022-09-01T04:43:25.537Z,1014.79
2022-09-01T04:44:25.502Z,1014.81
2022-09-01T04:45:25.512Z,1014.82
2022-09-01T04:46:25.435Z,1014.81
2022-09-01T04:47:25.385Z,1014.82
2022-09-01T04:48:25.345Z,1014.81
2022-09-01T04:49:25.309Z,1014.86
2022-09-01T04:50:25.293Z,1014.83
2022-09-01T04:51:25.242Z,1014.81
2022-09-01T04:52:25.194Z,1014.85
2022-09-01T04:53:27.632Z,1014.85
2022-09-01T04:54:25.115Z,1014.85
2022-09-01T04:55:25.089Z,1014.85
2022-09-01T04:56:25.040Z,1014.83
2022-09-01T04:57:25.017Z,1014.83
2022-09-01T04:58:25.192Z,1014.86
2022-09-01T04:59:24.928Z,1014.88
2022-09-01T05:00:24.996Z,1014.85
2022-09-01T05:01:24.945Z,1014.89
2022-09-01T05:02:24.848Z,1014.90
2022-09-01T05:03:25.759Z,1014.91
2022-09-01T05:04:24.736Z,1014.92
2022-09-01T05:05:34.290Z,1014.92
2022-09-01T05:06:24.661Z,1014.91
2022-09-01T05:07:24.634Z,1014.90
2022-09-01T05:08:24.913Z,1014.90
2022-09-01T05:09:24.546Z,1014.89
2022-09-01T05:10:24.507Z,1014.95
2022-09-01T05:11:24.469Z,1014.89
2022-09-01T05:12:24.433Z,1014.90
2022-09-01T05:13:24.404Z,1014.92
2022-09-01T05:14:24.353Z,1014.93
2022-09-01T05:15:24.317Z,1014.93
2022-09-01T05:16:25.596Z,1014.89
2022-09-01T05:17:24.243Z,1014.92
2022-09-01T05:18:24.204Z,1014.88
2022-09-01T05:19:24.173Z,1014.89
2022-09-01T05:20:24.128Z,1014.89
2022-09-01T05:21:24.090Z,1014.94
2022-09-01T05:22:24.051Z,1014.89
2022-09-01T05:23:24.013Z,1014.93
2022-09-01T05:24:23.986Z,1014.93
2022-09-01T05:25:23.936Z,1014.96
2022-09-01T05:26:23.902Z,1014.91
2022-09-01T05:27:23.866Z,1014.92
2022-09-01T05:28:23.826Z,1014.92
2022-09-01T05:29:23.788Z,1014.93
2022-09-01T05:30:23.760Z,1014.97
2022-09-01T05:31:23.766Z,1014.98
2022-09-01T05:32:23.672Z,1014.93
2022-09-01T05:33:23.631Z,1014.95
2022-09-01T05:34:23.597Z,1014.93
2022-09-01T05:35:23.556Z,1015.00
2022-09-01T05:36:23.541Z,1014.98
2022-09-01T05:37:23.480Z,1015.02
2022-09-01T05:38:23.445Z,1014.99
2022-09-01T05:39:23.406Z,1014.99
2022-09-01T05:40:23.447Z,1015.03
2022-09-01T05:41:23.344Z,1014.98
2022-09-01T05:42:23.293Z,1015.03
2022-09-01T05:43:23.256Z,1015.08
2022-09-01T05:44:23.216Z,1015.07
2022-09-01T05:45:23.179Z,1015.14
2022-09-01T05:46:23.155Z,1015.18
2022-09-01T05:47:23.113Z,1015.19
2022-09-01T05:48:23.069Z,1015.23
2022-09-01T05:49:23.031Z,1015.23
2022-09-01T05:50:23.004Z,1015.24
2022-09-01T05:51:43.427Z,1015.25
2022-09-01T05:52:22.915Z,1015.25
2022-09-01T05:53:22.901Z,1015.29
2022-09-01T05:54:22.842Z,1015.27
2022-09-01T05:55:22.809Z,1015.31
2022-09-01T05:56:22.768Z,1015.32
2022-09-01T05:57:35.415Z,1015.35
2022-09-01T05:58:22.696Z,1015.35
2022-09-01T05:59:23.812Z,1015.40
2022-09-01T06:00:22.623Z,1015.42
2022-09-01T06:01:22.590Z,1015.39
2022-09-01T06:02:22.615Z,1015.42
2022-09-01T06:03:22.911Z,1015.42
2022-09-01T06:04:22.492Z,1015.47
2022-09-01T06:05:22.444Z,1015.46
2022-09-01T06:06:22.408Z,1015.40
2022-09-01T06:07:25.394Z,1015.48
2022-09-01T06:08:22.337Z,1015.47
2022-09-01T06:09:22.317Z,1015.48
2022-09-01T06:10:22.268Z,1015.51
2022-09-01T06:11:22.235Z,1015.51
2022-09-01T06:12:22.207Z,1015.54
2022-09-01T06:13:22.251Z,1015.52
2022-09-01T06:14:22.131Z,1015.53
2022-09-01T06:15:22.107Z,1015.58
2022-09-01T06:16:22.135Z,1015.63
2022-09-01T06:17:22.113Z,1015.62
2022-09-01T06:18:21.991Z,1015.63
2022-09-01T06:19:21.960Z,1015.71
2022-09-01T06:20:21.935Z,1015.70
2022-09-01T06:21:21.896Z,1015.73
2022-09-01T06:22:21.853Z,1015.71
2022-09-01T06:23:21.868Z,1015.71
2022-09-01T06:24:21.783Z,1015.72
2022-09-01T06:25:21.753Z,1015.76
2022-09-01T06:26:21.728Z,1015.72
2022-09-01T06:27:21.688Z,1015.71
2022-09-01T06:28:21.648Z,1015.69
2022-09-01T06:29:21.630Z,1015.69
2022-09-01T06:30:24.162Z,1015.71
2022-09-01T06:31:21.635Z,1015.74
2022-09-01T06:32:21.524Z,1015.74
2022-09-01T06:33:21.481Z,1015.77
2022-09-01T06:34:21.449Z,1015.74
2022-09-01T06:35:21.425Z,1015.73
2022-09-01T06:36:21.378Z,1015.78
2022-09-01T06:37:21.357Z,1015.77
2022-09-01T06:38:21.312Z,1015.78
2022-09-01T06:39:21.280Z,1015.82
2022-09-01T06:40:21.277Z,1015.84
2022-09-01T06:41:21.212Z,1015.80
2022-09-01T06:42:21.204Z,1015.81
2022-09-01T06:43:21.325Z,1015.86
2022-09-01T06:44:21.110Z,1015.88
2022-09-01T06:45:21.080Z,1015.90
2022-09-01T06:46:21.080Z,1015.95
2022-09-01T06:47:21.014Z,1015.92
2022-09-01T06:48:20.978Z,1015.93
2022-09-01T06:49:20.977Z,1015.94
2022-09-01T06:51:21.903Z,1015.94
2022-09-01T06:52:20.867Z,1015.95
2022-09-01T06:53:36.085Z,1016.03
2022-09-01T06:54:21.284Z,1015.99
2022-09-01T06:55:20.762Z,1016.04
2022-09-01T06:56:20.714Z,1016.04
2022-09-01T06:58:21.344Z,1016.07
2022-09-01T06:59:20.619Z,1016.04
2022-09-01T07:00:20.596Z,1016.08
2022-09-01T07:01:20.621Z,1016.07
2022-09-01T07:02:22.410Z,1016.08
2022-09-01T07:03:20.661Z,1016.13
2022-09-01T07:04:20.452Z,1016.16
2022-09-01T07:08:20.567Z,1016.20
2022-09-01T07:09:22.191Z,1016.23
2022-09-01T07:10:21.375Z,1016.27
2022-09-01T07:12:07.218Z,1016.31
2022-09-01T07:12:27.982Z,1016.29
2022-09-01T07:13:20.159Z,1016.30
2022-09-01T07:14:20.124Z,1016.29
2022-09-01T07:16:38.547Z,1016.35
2022-09-01T07:18:20.128Z,1016.39
2022-09-01T07:19:19.968Z,1016.44
2022-09-01T07:20:27.632Z,1016.43
2022-09-01T07:23:19.851Z,1016.49
2022-09-01T07:24:19.806Z,1016.50
2022-09-01T07:25:19.773Z,1016.53
2022-09-01T07:26:27.085Z,1016.58
2022-09-01T07:27:19.716Z,1016.57
2022-09-01T07:28:19.805Z,1016.60
2022-09-01T07:29:19.669Z,1016.58
2022-09-01T07:30:19.616Z,1016.60
2022-09-01T07:32:48.391Z,1016.62
2022-09-01T07:35:19.475Z,1016.67
2022-09-01T07:36:26.961Z,1016.69
2022-09-01T07:42:30.244Z,1016.38
2022-09-01T07:42:31.492Z,1016.47
2022-09-01T07:42:31.771Z,1016.64
2022-09-01T07:43:19.279Z,1016.66
2022-09-01T07:44:19.177Z,1016.64
2022-09-01T07:45:27.061Z,1016.66
2022-09-01T07:47:20.198Z,1016.66
2022-09-01T07:49:52.594Z,1016.70
2022-09-01T07:50:40.325Z,1016.66
2022-09-01T07:51:36.132Z,1016.71
2022-09-01T07:52:22.643Z,1016.69
2022-09-01T07:53:19.116Z,1016.66
2022-09-01T07:54:18.852Z,1016.65
2022-09-01T07:55:18.835Z,1016.69
2022-09-01T07:56:18.790Z,1016.71
2022-09-01T07:57:18.774Z,1016.71
2022-09-01T07:58:18.733Z,1016.67
2022-09-01T07:59:18.699Z,1016.68
2022-09-01T08:00:18.664Z,1016.63
2022-09-01T08:01:18.687Z,1016.65
2022-09-01T08:02:18.691Z,1016.67
2022-09-01T08:03:18.658Z,1016.69
2022-09-01T08:04:18.553Z,1016.71
2022-09-01T08:05:18.509Z,1016.72
2022-09-01T08:06:18.488Z,1016.71
2022-09-01T08:07:18.454Z,1016.70
2022-09-01T08:08:18.847Z,1016.66
2022-09-01T08:09:25.308Z,1016.68
2022-09-01T08:10:20.098Z,1016.70
2022-09-01T08:11:25.213Z,1016.68
2022-09-01T08:12:18.290Z,1016.64
2022-09-01T08:13:18.959Z,1016.62
2022-09-01T08:14:18.450Z,1016.63
2022-09-01T08:16:18.574Z,1016.69
2022-09-01T08:17:34.322Z,1016.64
2022-09-01T08:18:18.191Z,1016.63
2022-09-01T08:19:18.077Z,1016.61
2022-09-01T08:20:18.099Z,1016.68
2022-09-01T08:21:18.011Z,1016.64
2022-09-01T08:22:17.979Z,1016.62
2022-09-01T08:23:17.950Z,1016.65
2022-09-01T08:24:17.923Z,1016.62
2022-09-01T08:25:20.765Z,1016.63
2022-09-01T08:26:17.873Z,1016.59
2022-09-01T08:27:17.828Z,1016.58
2022-09-01T08:28:26.425Z,1016.57
2022-09-01T08:29:17.775Z,1016.59
2022-09-01T08:30:17.830Z,1016.59
2022-09-01T08:31:17.783Z,1016.54
2022-09-01T08:32:17.675Z,1016.58
2022-09-01T08:33:17.646Z,1016.55
2022-09-01T08:34:17.613Z,1016.60
2022-09-01T08:35:17.589Z,1016.70
2022-09-01T08:36:22.873Z,1016.61
2022-09-01T08:37:17.536Z,1016.60
2022-09-01T08:38:17.575Z,1016.58
2022-09-01T08:39:17.468Z,1016.61
2022-09-01T08:40:17.567Z,1016.53
2022-09-01T08:41:17.410Z,1016.54
2022-09-01T08:42:17.373Z,1016.55
2022-09-01T08:43:17.401Z,1016.58
2022-09-01T08:44:17.328Z,1016.52
2022-09-01T08:45:17.279Z,1016.47
2022-09-01T08:46:17.288Z,1016.44
2022-09-01T08:47:17.470Z,1016.56
2022-09-01T08:49:25.753Z,1016.50
2022-09-01T08:50:17.147Z,1016.49
2022-09-01T08:51:19.988Z,1016.50
2022-09-01T08:52:17.068Z,1016.52
2022-09-01T08:53:17.048Z,1016.52
2022-09-01T08:54:18.058Z,1016.50
2022-09-01T08:55:16.984Z,1016.47
2022-09-01T08:56:16.968Z,1016.49
2022-09-01T08:57:16.919Z,1016.45
2022-09-01T08:58:16.893Z,1016.48
2022-09-01T08:59:16.870Z,1016.47
2022-09-01T09:00:16.828Z,1016.43
2022-09-01T09:01:17.797Z,1016.44
2022-09-01T09:02:16.812Z,1016.42
2022-09-01T09:03:17.114Z,1016.40
2022-09-01T09:04:16.710Z,1016.41
2022-09-01T09:05:16.682Z,1016.47
2022-09-01T09:06:16.653Z,1016.47
2022-09-01T09:07:16.623Z,1016.43
2022-09-01T09:08:16.604Z,1016.44
2022-09-01T09:09:16.565Z,1016.42
2022-09-01T09:10:16.546Z,1016.38
2022-09-01T09:11:16.504Z,1016.42
2022-09-01T09:12:16.565Z,1016.38
2022-09-01T09:13:16.486Z,1016.32
2022-09-01T09:14:16.423Z,1016.37
2022-09-01T09:15:16.392Z,1016.33
2022-09-01T09:16:16.467Z,1016.31
2022-09-01T09:17:16.399Z,1016.32
2022-09-01T09:18:20.080Z,1016.34
2022-09-01T09:19:16.361Z,1016.31
2022-09-01T09:20:16.522Z,1016.32
2022-09-01T09:21:16.202Z,1016.31
2022-09-01T09:22:16.173Z,1016.28
2022-09-01T09:23:16.147Z,1015.73
2022-09-01T09:24:21.597Z,1016.25
2022-09-01T09:25:19.296Z,1016.09
2022-09-01T09:26:21.903Z,1016.09
2022-09-01T09:27:16.377Z,1016.01
2022-09-01T09:28:15.993Z,1016.12
2022-09-01T09:29:15.972Z,1015.82
2022-09-01T09:30:15.947Z,1016.05
2022-09-01T09:31:17.892Z,1015.82
2022-09-01T09:32:35.261Z,1015.94
2022-09-01T09:33:46.560Z,1015.89
2022-09-01T09:34:15.816Z,1015.97
2022-09-01T09:35:15.784Z,1015.93
2022-09-01T09:36:15.768Z,1016.09
2022-09-01T09:37:15.729Z,1016.04
2022-09-01T09:38:15.695Z,1015.92
2022-09-01T09:39:16.661Z,1015.98
2022-09-01T09:40:15.709Z,1015.92
2022-09-01T09:41:18.863Z,1015.97
2022-09-01T09:42:15.591Z,1015.96
2022-09-01T09:43:15.599Z,1015.98
2022-09-01T09:44:15.531Z,1015.77
2022-09-01T09:45:15.495Z,1015.66
2022-09-01T09:46:24.651Z,1015.74
2022-09-01T09:47:40.365Z,1016.01
2022-09-01T09:48:15.407Z,1016.00
2022-09-01T09:49:15.366Z,1016.02
2022-09-01T09:50:15.337Z,1016.04
2022-09-01T09:51:15.309Z,1015.93
2022-09-01T09:52:16.457Z,1015.87
2022-09-01T09:53:15.248Z,1015.89
2022-09-01T09:54:15.236Z,1015.89
2022-09-01T09:55:15.187Z,1015.72
2022-09-01T09:56:15.155Z,1015.86
2022-09-01T09:57:15.137Z,1015.78
2022-09-01T09:58:15.096Z,1015.82
2022-09-01T09:59:15.071Z,1015.73
2022-09-01T10:00:15.053Z,1015.50
2022-09-01T10:01:15.094Z,1015.60
2022-09-01T10:02:14.980Z,1015.43
2022-09-01T10:03:14.970Z,1015.88
2022-09-01T10:04:14.966Z,1015.40
2022-09-01T10:05:14.902Z,1015.42
2022-09-01T10:06:14.870Z,1015.32
2022-09-01T10:07:14.828Z,1015.24
2022-09-01T10:08:14.800Z,1015.49
2022-09-01T10:09:14.768Z,1015.16
2022-09-01T10:10:14.741Z,1015.56
2022-09-01T10:11:14.722Z,1015.59
2022-09-01T10:12:14.682Z,1015.34
2022-09-01T10:13:19.058Z,1015.54
2022-09-01T10:14:26.112Z,1015.61
2022-09-01T10:15:14.590Z,1015.63
2022-09-01T10:16:14.627Z,1015.60
2022-09-01T10:17:15.915Z,1015.64
2022-09-01T10:18:20.599Z,1015.61
2022-09-01T10:19:16.171Z,1015.56
2022-09-01T10:20:14.458Z,1015.39
2022-09-01T10:21:14.412Z,1015.47
2022-09-01T10:22:15.245Z,1015.34
2022-09-01T10:23:15.275Z,1015.46
2022-09-01T10:24:20.399Z,1015.39
2022-09-01T10:25:14.287Z,1015.34
2022-09-01T10:26:14.260Z,1015.32
2022-09-01T10:27:14.947Z,1015.31
2022-09-01T10:28:20.662Z,1015.33
2022-09-01T10:29:15.822Z,1015.45
2022-09-01T10:30:18.749Z,1015.56
2022-09-01T10:31:14.171Z,1015.53
2022-09-01T10:32:31.817Z,1015.18
2022-09-01T10:33:19.896Z,1015.37
2022-09-01T10:34:14.033Z,1015.14
2022-09-01T10:35:14.545Z,1015.37
2022-09-01T10:36:13.964Z,1015.40
2022-09-01T10:37:15.998Z,1015.30
2022-09-01T10:38:13.946Z,1015.27
2022-09-01T10:39:13.865Z,1015.31
2022-09-01T10:40:13.885Z,1015.33
2022-09-01T10:41:15.853Z,1015.38
2022-09-01T10:42:13.774Z,1015.37
2022-09-01T10:43:13.741Z,1015.16
2022-09-01T10:44:13.719Z,1015.34
2022-09-01T10:45:14.201Z,1014.95
2022-09-01T10:46:15.899Z,1014.81
2022-09-01T10:47:14.670Z,1014.75
2022-09-01T10:48:13.586Z,1014.77
2022-09-01T10:49:13.555Z,1014.87
2022-09-01T10:50:13.543Z,1014.89
2022-09-01T10:51:18.440Z,1015.18
2022-09-01T10:52:16.177Z,1014.94
2022-09-01T10:53:17.281Z,1015.04
2022-09-01T10:54:13.404Z,1014.98
2022-09-01T10:55:13.368Z,1014.86
2022-09-01T10:56:23.388Z,1014.91
2022-09-01T10:57:13.306Z,1014.89
2022-09-01T10:59:31.058Z,1014.91
2022-09-01T11:00:40.063Z,1015.07
2022-09-01T11:01:15.502Z,1014.96
2022-09-01T11:02:34.943Z,1014.91
2022-09-01T11:04:13.229Z,1014.83
2022-09-01T11:05:13.100Z,1014.95
2022-09-01T11:06:22.483Z,1014.88
2022-09-01T11:07:13.128Z,1015.04
2022-09-01T11:08:16.001Z,1015.22
2022-09-01T11:09:12.937Z,1015.18
2022-09-01T11:10:31.480Z,1015.13
2022-09-01T11:11:12.884Z,1015.22
2022-09-01T11:12:12.850Z,1015.20
2022-09-01T11:13:12.818Z,1015.19
2022-09-01T11:14:12.788Z,1015.14
2022-09-01T11:15:12.785Z,1015.20
2022-09-01T11:16:12.777Z,1015.21
2022-09-01T11:17:12.750Z,1014.69
2022-09-01T11:18:13.332Z,1014.69
2022-09-01T11:19:16.104Z,1014.76
2022-09-01T11:20:12.608Z,1015.16
2022-09-01T11:21:12.898Z,1014.75
2022-09-01T11:22:13.116Z,1015.10
2022-09-01T11:23:12.519Z,1015.05
2022-09-01T11:24:12.493Z,1015.06
2022-09-01T11:25:12.978Z,1015.09
2022-09-01T11:26:20.120Z,1014.99
2022-09-01T11:27:12.419Z,1015.12
2022-09-01T11:28:12.367Z,1015.13
2022-09-01T11:29:12.336Z,1015.03
2022-09-01T11:30:12.318Z,1014.99
2022-09-01T11:31:12.277Z,1015.05
2022-09-01T11:32:12.310Z,1015.08
2022-09-01T11:33:12.215Z,1015.08
2022-09-01T11:34:12.208Z,1015.01
2022-09-01T11:35:12.984Z,1015.13
2022-09-01T11:36:12.124Z,1015.15
2022-09-01T11:37:12.111Z,1015.05
2022-09-01T11:38:12.066Z,1015.04
2022-09-01T11:39:12.036Z,1015.09
2022-09-01T11:40:12.072Z,1015.13
2022-09-01T11:41:12.080Z,1015.15
2022-09-01T11:42:11.947Z,1015.18
2022-09-01T11:43:12.505Z,1015.03
2022-09-01T11:44:11.889Z,1015.03
2022-09-01T11:45:11.901Z,1015.24
2022-09-01T11:46:11.925Z,1015.13
2022-09-01T11:47:14.340Z,1015.02
2022-09-01T11:48:11.772Z,1015.14
2022-09-01T11:49:11.742Z,1015.14
2022-09-01T11:50:11.727Z,1015.15
2022-09-01T11:51:14.490Z,1015.10
2022-09-01T11:52:11.759Z,1015.05
2022-09-01T11:53:11.626Z,1015.07
2022-09-01T11:54:11.590Z,1014.45
2022-09-01T11:55:11.562Z,1014.98
2022-09-01T11:56:11.543Z,1015.07
2022-09-01T11:57:11.507Z,1015.08
2022-09-01T11:58:15.702Z,1014.44
2022-09-01T11:59:11.443Z,1014.43
2022-09-01T12:00:11.427Z,1014.43
2022-09-01T12:01:11.398Z,1014.34
2022-09-01T12:02:11.404Z,1014.32
2022-09-01T12:03:11.443Z,1014.32
2022-09-01T12:04:11.299Z,1014.42
2022-09-01T12:05:11.270Z,1014.55
2022-09-01T12:06:11.251Z,1014.94
2022-09-01T12:07:11.228Z,1014.93
2022-09-01T12:08:11.177Z,1014.39
2022-09-01T12:09:11.146Z,1014.34
2022-09-01T12:10:11.117Z,1014.32
2022-09-01T12:11:11.100Z,1014.33
2022-09-01T12:12:11.061Z,1014.24
2022-09-01T12:13:11.022Z,1014.22
2022-09-01T12:14:11.824Z,1014.29
2022-09-01T12:15:10.958Z,1014.73
2022-09-01T12:16:19.175Z,1014.74
2022-09-01T12:17:10.957Z,1014.75
2022-09-01T12:18:10.863Z,1014.69
2022-09-01T12:19:10.831Z,1014.68
2022-09-01T12:20:10.799Z,1014.70
2022-09-01T12:21:10.766Z,1014.68
2022-09-01T12:22:10.751Z,1014.66
2022-09-01T12:23:10.705Z,1014.26
2022-09-01T12:24:10.672Z,1014.69
2022-09-01T12:25:10.641Z,1014.16
2022-09-01T12:26:10.612Z,1014.70